sensor_id;sensor_type;location;lat;lon;timestamp;P1;durP1;ratioP1;P2;durP2;ratioP2
21567;SDS011;10944;42.590;12.630;2023-04-01T00:02:18;20.63;;;10.57;;
21567;SDS011;10944;42.590;12.630;2023-04-01T00:04:44;22.00;;;10.88;;
21567;SDS011;10944;42.590;12.630;2023-04-01T00:07:09;26.90;;;10.80;;
21567;SDS011;10944;42.590;12.630;2023-04-01T00:09:35;26.40;;;11.43;;
21567;SDS011;10944;42.590;12.630;2023-04-01T00:12:02;23.92;;;10.90;;
21567;SDS011;10944;42.590;12.630;2023-04-01T00:14:28;20.08;;;10.35;;
21567;SDS011;10944;42.590;12.630;2023-04-01T00:16:54;26.60;;;10.82;;
21567;SDS011;10944;42.590;12.630;2023-04-01T00:19:20;30.83;;;11.27;;
21567;SDS011;10944;42.590;12.630;2023-04-01T00:21:46;29.13;;;11.20;;
21567;SDS011;10944;42.590;12.630;2023-04-01T00:24:13;25.38;;;10.15;;
21567;SDS011;10944;42.590;12.630;2023-04-01T00:26:39;26.15;;;10.45;;
21567;SDS011;10944;42.590;12.630;2023-04-01T00:29:07;26.63;;;10.05;;
21567;SDS011;10944;42.590;12.630;2023-04-01T00:31:33;29.00;;;10.20;;
21567;SDS011;10944;42.590;12.630;2023-04-01T00:33:59;25.98;;;9.90;;
21567;SDS011;10944;42.590;12.630;2023-04-01T00:36:25;26.75;;;10.02;;
21567;SDS011;10944;42.590;12.630;2023-04-01T00:38:50;29.02;;;9.18;;
21567;SDS011;10944;42.590;12.630;2023-04-01T00:41:17;29.95;;;9.60;;
21567;SDS011;10944;42.590;12.630;2023-04-01T00:43:45;28.70;;;9.50;;
21567;SDS011;10944;42.590;12.630;2023-04-01T00:46:13;27.38;;;9.65;;
21567;SDS011;10944;42.590;12.630;2023-04-01T00:48:40;22.30;;;9.20;;
21567;SDS011;10944;42.590;12.630;2023-04-01T00:51:11;30.33;;;9.48;;
21567;SDS011;10944;42.590;12.630;2023-04-01T00:53:43;27.50;;;9.15;;
21567;SDS011;10944;42.590;12.630;2023-04-01T00:56:33;28.20;;;9.48;;
21567;SDS011;10944;42.590;12.630;2023-04-01T00:59:04;22.20;;;8.73;;
21567;SDS011;10944;42.590;12.630;2023-04-01T01:01:38;28.65;;;9.23;;
21567;SDS011;10944;42.590;12.630;2023-04-01T01:04:04;24.60;;;9.00;;
21567;SDS011;10944;42.590;12.630;2023-04-01T01:09:59;27.52;;;8.23;;
21567;SDS011;10944;42.590;12.630;2023-04-01T01:15:25;26.35;;;8.18;;
21567;SDS011;10944;42.590;12.630;2023-04-01T01:31:57;22.52;;;7.93;;
21567;SDS011;10944;42.590;12.630;2023-04-01T01:37:26;25.70;;;8.38;;
21567;SDS011;10944;42.590;12.630;2023-04-01T01:39:58;27.65;;;8.70;;
21567;SDS011;10944;42.590;12.630;2023-04-01T01:42:27;30.25;;;9.23;;
21567;SDS011;10944;42.590;12.630;2023-04-01T01:44:55;25.02;;;9.27;;
21567;SDS011;10944;42.590;12.630;2023-04-01T01:47:24;24.85;;;9.23;;
21567;SDS011;10944;42.590;12.630;2023-04-01T01:49:51;27.15;;;9.70;;
21567;SDS011;10944;42.590;12.630;2023-04-01T01:52:21;28.65;;;11.07;;
21567;SDS011;10944;42.590;12.630;2023-04-01T01:54:51;25.95;;;9.05;;
21567;SDS011;10944;42.590;12.630;2023-04-01T01:57:21;27.80;;;9.50;;
21567;SDS011;10944;42.590;12.630;2023-04-01T01:59:51;28.33;;;9.65;;
21567;SDS011;10944;42.590;12.630;2023-04-01T02:02:21;31.05;;;9.73;;
21567;SDS011;10944;42.590;12.630;2023-04-01T02:04:48;27.77;;;9.95;;
21567;SDS011;10944;42.590;12.630;2023-04-01T02:07:20;28.88;;;10.93;;
21567;SDS011;10944;42.590;12.630;2023-04-01T02:09:50;30.95;;;9.57;;
21567;SDS011;10944;42.590;12.630;2023-04-01T02:12:16;34.05;;;10.52;;
21567;SDS011;10944;42.590;12.630;2023-04-01T02:14:51;34.53;;;10.50;;
21567;SDS011;10944;42.590;12.630;2023-04-01T02:17:22;33.83;;;10.50;;
21567;SDS011;10944;42.590;12.630;2023-04-01T02:22:26;27.98;;;10.13;;
21567;SDS011;10944;42.590;12.630;2023-04-01T02:24:56;28.40;;;11.02;;
21567;SDS011;10944;42.590;12.630;2023-04-01T02:27:24;32.75;;;11.52;;
21567;SDS011;10944;42.590;12.630;2023-04-01T02:29:50;30.10;;;10.98;;
21567;SDS011;10944;42.590;12.630;2023-04-01T02:32:17;31.77;;;10.57;;
21567;SDS011;10944;42.590;12.630;2023-04-01T02:34:45;35.50;;;11.18;;
21567;SDS011;10944;42.590;12.630;2023-04-01T02:37:12;33.10;;;10.40;;
21567;SDS011;10944;42.590;12.630;2023-04-01T02:39:39;31.52;;;9.95;;
21567;SDS011;10944;42.590;12.630;2023-04-01T02:42:05;29.48;;;10.00;;
21567;SDS011;10944;42.590;12.630;2023-04-01T02:44:31;26.33;;;9.65;;
21567;SDS011;10944;42.590;12.630;2023-04-01T02:46:57;34.17;;;10.45;;
21567;SDS011;10944;42.590;12.630;2023-04-01T02:49:22;30.98;;;10.43;;
21567;SDS011;10944;42.590;12.630;2023-04-01T02:51:48;26.42;;;9.77;;
21567;SDS011;10944;42.590;12.630;2023-04-01T02:54:14;33.72;;;10.10;;
21567;SDS011;10944;42.590;12.630;2023-04-01T02:56:40;26.08;;;10.07;;
21567;SDS011;10944;42.590;12.630;2023-04-01T02:59:05;23.08;;;9.25;;
21567;SDS011;10944;42.590;12.630;2023-04-01T03:01:31;25.90;;;9.52;;
21567;SDS011;10944;42.590;12.630;2023-04-01T03:03:57;26.10;;;10.20;;
21567;SDS011;10944;42.590;12.630;2023-04-01T03:06:23;24.58;;;9.15;;
21567;SDS011;10944;42.590;12.630;2023-04-01T03:08:48;29.17;;;9.88;;
21567;SDS011;10944;42.590;12.630;2023-04-01T03:11:14;30.45;;;9.77;;
21567;SDS011;10944;42.590;12.630;2023-04-01T03:13:40;32.92;;;10.93;;
21567;SDS011;10944;42.590;12.630;2023-04-01T03:16:06;28.52;;;9.50;;
21567;SDS011;10944;42.590;12.630;2023-04-01T03:18:32;28.23;;;9.70;;
21567;SDS011;10944;42.590;12.630;2023-04-01T03:21:11;29.35;;;9.77;;
21567;SDS011;10944;42.590;12.630;2023-04-01T03:23:38;27.02;;;9.40;;
21567;SDS011;10944;42.590;12.630;2023-04-01T03:26:04;32.60;;;10.23;;
21567;SDS011;10944;42.590;12.630;2023-04-01T03:28:29;32.22;;;9.90;;
21567;SDS011;10944;42.590;12.630;2023-04-01T03:30:55;30.30;;;9.85;;
21567;SDS011;10944;42.590;12.630;2023-04-01T03:33:21;30.45;;;9.20;;
21567;SDS011;10944;42.590;12.630;2023-04-01T03:35:46;30.17;;;9.75;;
21567;SDS011;10944;42.590;12.630;2023-04-01T03:38:12;35.42;;;9.98;;
21567;SDS011;10944;42.590;12.630;2023-04-01T03:40:41;33.63;;;10.15;;
21567;SDS011;10944;42.590;12.630;2023-04-01T03:43:07;31.98;;;9.98;;
21567;SDS011;10944;42.590;12.630;2023-04-01T03:45:34;30.60;;;9.98;;
21567;SDS011;10944;42.590;12.630;2023-04-01T03:48:01;31.77;;;10.27;;
21567;SDS011;10944;42.590;12.630;2023-04-01T03:50:26;39.83;;;11.23;;
21567;SDS011;10944;42.590;12.630;2023-04-01T03:52:52;34.42;;;10.32;;
21567;SDS011;10944;42.590;12.630;2023-04-01T03:55:18;27.00;;;10.63;;
21567;SDS011;10944;42.590;12.630;2023-04-01T03:57:43;32.17;;;10.32;;
21567;SDS011;10944;42.590;12.630;2023-04-01T04:00:09;32.15;;;11.50;;
21567;SDS011;10944;42.590;12.630;2023-04-01T04:02:36;27.98;;;10.93;;
21567;SDS011;10944;42.590;12.630;2023-04-01T04:05:01;33.15;;;10.30;;
21567;SDS011;10944;42.590;12.630;2023-04-01T04:07:27;33.10;;;10.80;;
21567;SDS011;10944;42.590;12.630;2023-04-01T04:09:53;33.45;;;10.60;;
21567;SDS011;10944;42.590;12.630;2023-04-01T04:12:18;30.90;;;10.63;;
21567;SDS011;10944;42.590;12.630;2023-04-01T04:14:44;29.13;;;11.43;;
21567;SDS011;10944;42.590;12.630;2023-04-01T04:17:10;27.70;;;10.75;;
21567;SDS011;10944;42.590;12.630;2023-04-01T04:19:41;33.17;;;11.07;;
21567;SDS011;10944;42.590;12.630;2023-04-01T04:22:07;36.38;;;12.20;;
21567;SDS011;10944;42.590;12.630;2023-04-01T04:24:36;31.70;;;11.88;;
21567;SDS011;10944;42.590;12.630;2023-04-01T04:27:02;39.03;;;11.82;;
21567;SDS011;10944;42.590;12.630;2023-04-01T04:29:29;32.72;;;12.18;;
21567;SDS011;10944;42.590;12.630;2023-04-01T04:31:54;28.50;;;10.63;;
21567;SDS011;10944;42.590;12.630;2023-04-01T04:34:20;31.42;;;11.55;;
21567;SDS011;10944;42.590;12.630;2023-04-01T04:36:47;35.78;;;11.55;;
21567;SDS011;10944;42.590;12.630;2023-04-01T04:39:14;34.33;;;11.30;;
21567;SDS011;10944;42.590;12.630;2023-04-01T04:41:40;29.55;;;10.07;;
21567;SDS011;10944;42.590;12.630;2023-04-01T04:44:06;36.08;;;11.05;;
21567;SDS011;10944;42.590;12.630;2023-04-01T04:46:31;35.88;;;10.93;;
21567;SDS011;10944;42.590;12.630;2023-04-01T04:48:57;34.42;;;9.85;;
21567;SDS011;10944;42.590;12.630;2023-04-01T04:51:23;31.50;;;9.85;;
21567;SDS011;10944;42.590;12.630;2023-04-01T04:53:49;32.78;;;11.07;;
21567;SDS011;10944;42.590;12.630;2023-04-01T04:56:19;29.55;;;11.23;;
21567;SDS011;10944;42.590;12.630;2023-04-01T04:58:46;33.60;;;10.43;;
21567;SDS011;10944;42.590;12.630;2023-04-01T05:01:13;29.27;;;10.07;;
21567;SDS011;10944;42.590;12.630;2023-04-01T05:03:40;27.75;;;10.05;;
21567;SDS011;10944;42.590;12.630;2023-04-01T05:06:07;23.95;;;9.60;;
21567;SDS011;10944;42.590;12.630;2023-04-01T05:08:34;32.67;;;10.20;;
21567;SDS011;10944;42.590;12.630;2023-04-01T05:11:01;30.10;;;10.40;;
21567;SDS011;10944;42.590;12.630;2023-04-01T05:13:28;33.78;;;10.85;;
21567;SDS011;10944;42.590;12.630;2023-04-01T05:15:53;29.73;;;10.25;;
21567;SDS011;10944;42.590;12.630;2023-04-01T05:18:20;36.75;;;10.45;;
21567;SDS011;10944;42.590;12.630;2023-04-01T05:20:51;28.58;;;10.43;;
21567;SDS011;10944;42.590;12.630;2023-04-01T05:23:18;36.50;;;10.55;;
21567;SDS011;10944;42.590;12.630;2023-04-01T05:25:46;33.95;;;10.82;;
21567;SDS011;10944;42.590;12.630;2023-04-01T05:28:12;32.53;;;10.77;;
21567;SDS011;10944;42.590;12.630;2023-04-01T05:30:41;34.10;;;10.65;;
21567;SDS011;10944;42.590;12.630;2023-04-01T05:33:08;28.25;;;10.68;;
21567;SDS011;10944;42.590;12.630;2023-04-01T05:35:35;36.10;;;11.13;;
21567;SDS011;10944;42.590;12.630;2023-04-01T05:38:01;27.85;;;10.95;;
21567;SDS011;10944;42.590;12.630;2023-04-01T05:40:27;31.67;;;11.40;;
21567;SDS011;10944;42.590;12.630;2023-04-01T05:42:53;30.48;;;11.05;;
21567;SDS011;10944;42.590;12.630;2023-04-01T05:45:19;29.63;;;10.05;;
21567;SDS011;10944;42.590;12.630;2023-04-01T05:47:45;41.53;;;11.90;;
21567;SDS011;10944;42.590;12.630;2023-04-01T05:50:11;27.83;;;9.98;;
21567;SDS011;10944;42.590;12.630;2023-04-01T05:52:37;27.30;;;10.48;;
21567;SDS011;10944;42.590;12.630;2023-04-01T05:55:04;36.83;;;10.52;;
21567;SDS011;10944;42.590;12.630;2023-04-01T05:57:30;28.85;;;10.40;;
21567;SDS011;10944;42.590;12.630;2023-04-01T05:59:56;25.48;;;9.93;;
21567;SDS011;10944;42.590;12.630;2023-04-01T06:02:22;30.33;;;9.88;;
21567;SDS011;10944;42.590;12.630;2023-04-01T06:04:48;31.48;;;9.48;;
21567;SDS011;10944;42.590;12.630;2023-04-01T06:07:15;25.25;;;9.00;;
21567;SDS011;10944;42.590;12.630;2023-04-01T06:09:42;30.42;;;8.65;;
21567;SDS011;10944;42.590;12.630;2023-04-01T06:18:07;20.73;;;8.25;;
21567;SDS011;10944;42.590;12.630;2023-04-01T06:26:10;61.85;;;28.17;;
21567;SDS011;10944;42.590;12.630;2023-04-01T06:34:10;24.52;;;7.60;;
21567;SDS011;10944;42.590;12.630;2023-04-01T06:37:05;24.52;;;7.55;;
21567;SDS011;10944;42.590;12.630;2023-04-01T06:53:38;28.23;;;8.95;;
21567;SDS011;10944;42.590;12.630;2023-04-01T06:56:10;26.30;;;7.30;;
21567;SDS011;10944;42.590;12.630;2023-04-01T06:58:50;19.20;;;6.90;;
21567;SDS011;10944;42.590;12.630;2023-04-01T07:01:19;28.92;;;9.20;;
21567;SDS011;10944;42.590;12.630;2023-04-01T07:04:11;23.90;;;8.68;;
21567;SDS011;10944;42.590;12.630;2023-04-01T07:06:58;27.52;;;10.18;;
21567;SDS011;10944;42.590;12.630;2023-04-01T07:09:39;28.17;;;8.80;;
21567;SDS011;10944;42.590;12.630;2023-04-01T07:12:15;22.23;;;7.53;;
21567;SDS011;10944;42.590;12.630;2023-04-01T07:14:54;19.33;;;6.22;;
21567;SDS011;10944;42.590;12.630;2023-04-01T07:17:25;17.65;;;4.38;;
21567;SDS011;10944;42.590;12.630;2023-04-01T07:25:24;21.52;;;5.15;;
21567;SDS011;10944;42.590;12.630;2023-04-01T07:28:01;23.98;;;6.65;;
21567;SDS011;10944;42.590;12.630;2023-04-01T07:30:33;22.58;;;5.47;;
21567;SDS011;10944;42.590;12.630;2023-04-01T07:36:52;22.48;;;8.75;;
21567;SDS011;10944;42.590;12.630;2023-04-01T07:39:12;27.80;;;10.90;;
21567;SDS011;10944;42.590;12.630;2023-04-01T07:44:47;15.30;;;5.05;;
21567;SDS011;10944;42.590;12.630;2023-04-01T07:47:23;24.10;;;5.68;;
21567;SDS011;10944;42.590;12.630;2023-04-01T07:52:57;15.50;;;4.82;;
21567;SDS011;10944;42.590;12.630;2023-04-01T07:58:14;28.67;;;6.07;;
21567;SDS011;10944;42.590;12.630;2023-04-01T08:04:04;21.50;;;4.90;;
21567;SDS011;10944;42.590;12.630;2023-04-01T08:18:02;22.85;;;4.93;;
21567;SDS011;10944;42.590;12.630;2023-04-01T08:21:32;18.27;;;5.35;;
21567;SDS011;10944;42.590;12.630;2023-04-01T08:24:05;22.50;;;5.80;;
21567;SDS011;10944;42.590;12.630;2023-04-01T08:26:48;17.75;;;5.28;;
21567;SDS011;10944;42.590;12.630;2023-04-01T08:29:19;21.33;;;6.43;;
21567;SDS011;10944;42.590;12.630;2023-04-01T08:31:54;27.90;;;9.65;;
21567;SDS011;10944;42.590;12.630;2023-04-01T08:34:28;19.65;;;5.40;;
21567;SDS011;10944;42.590;12.630;2023-04-01T08:37:05;20.85;;;5.30;;
21567;SDS011;10944;42.590;12.630;2023-04-01T08:39:43;22.42;;;4.90;;
21567;SDS011;10944;42.590;12.630;2023-04-01T08:47:42;21.73;;;4.45;;
21567;SDS011;10944;42.590;12.630;2023-04-01T09:01:17;15.68;;;4.20;;
21567;SDS011;10944;42.590;12.630;2023-04-01T09:06:55;17.20;;;4.78;;
21567;SDS011;10944;42.590;12.630;2023-04-01T09:09:49;19.02;;;4.38;;
21567;SDS011;10944;42.590;12.630;2023-04-01T09:12:35;19.30;;;4.35;;
21567;SDS011;10944;42.590;12.630;2023-04-01T09:18:19;17.80;;;4.85;;
21567;SDS011;10944;42.590;12.630;2023-04-01T09:27:13;18.95;;;5.53;;
21567;SDS011;10944;42.590;12.630;2023-04-01T09:36:07;43.22;;;20.02;;
21567;SDS011;10944;42.590;12.630;2023-04-01T09:38:42;28.80;;;11.75;;
21567;SDS011;10944;42.590;12.630;2023-04-01T09:44:02;15.68;;;4.00;;
21567;SDS011;10944;42.590;12.630;2023-04-01T10:03:33;14.13;;;3.35;;
21567;SDS011;10944;42.590;12.630;2023-04-01T10:51:19;11.50;;;3.10;;
21567;SDS011;10944;42.590;12.630;2023-04-01T10:54:03;12.45;;;3.42;;
21567;SDS011;10944;42.590;12.630;2023-04-01T10:57:02;10.07;;;3.05;;
21567;SDS011;10944;42.590;12.630;2023-04-01T11:05:40;14.00;;;3.20;;
21567;SDS011;10944;42.590;12.630;2023-04-01T11:08:39;10.45;;;2.95;;
21567;SDS011;10944;42.590;12.630;2023-04-01T11:17:25;9.95;;;3.00;;
21567;SDS011;10944;42.590;12.630;2023-04-01T11:31:03;10.43;;;3.15;;
21567;SDS011;10944;42.590;12.630;2023-04-01T11:44:55;10.90;;;2.80;;
21567;SDS011;10944;42.590;12.630;2023-04-01T11:50:38;11.18;;;2.90;;
21567;SDS011;10944;42.590;12.630;2023-04-01T11:53:47;12.27;;;2.90;;
21567;SDS011;10944;42.590;12.630;2023-04-01T11:59:24;9.25;;;2.50;;
21567;SDS011;10944;42.590;12.630;2023-04-01T12:07:27;10.00;;;2.60;;
21567;SDS011;10944;42.590;12.630;2023-04-01T12:13:00;8.85;;;2.30;;
21567;SDS011;10944;42.590;12.630;2023-04-01T12:21:52;12.27;;;2.67;;
21567;SDS011;10944;42.590;12.630;2023-04-01T12:32:53;11.45;;;2.58;;
21567;SDS011;10944;42.590;12.630;2023-04-01T12:35:32;10.23;;;3.90;;
21567;SDS011;10944;42.590;12.630;2023-04-01T13:09:18;8.63;;;2.60;;
21567;SDS011;10944;42.590;12.630;2023-04-01T13:20:07;9.52;;;2.78;;
21567;SDS011;10944;42.590;12.630;2023-04-01T13:25:38;10.07;;;2.42;;
21567;SDS011;10944;42.590;12.630;2023-04-01T13:28:28;10.82;;;3.33;;
21567;SDS011;10944;42.590;12.630;2023-04-01T13:31:12;13.63;;;3.05;;
21567;SDS011;10944;42.590;12.630;2023-04-01T13:34:06;11.02;;;2.90;;
21567;SDS011;10944;42.590;12.630;2023-04-01T13:37:02;10.38;;;2.95;;
21567;SDS011;10944;42.590;12.630;2023-04-01T13:42:38;9.85;;;2.95;;
21567;SDS011;10944;42.590;12.630;2023-04-01T13:45:21;13.57;;;2.80;;
21567;SDS011;10944;42.590;12.630;2023-04-01T14:10:43;12.48;;;2.45;;
21567;SDS011;10944;42.590;12.630;2023-04-01T14:13:34;14.43;;;2.70;;
21567;SDS011;10944;42.590;12.630;2023-04-01T14:16:29;12.98;;;2.35;;
21567;SDS011;10944;42.590;12.630;2023-04-01T14:36:35;14.45;;;2.70;;
21567;SDS011;10944;42.590;12.630;2023-04-01T14:52:39;11.30;;;2.50;;
21567;SDS011;10944;42.590;12.630;2023-04-01T15:03:20;10.75;;;1.38;;
21567;SDS011;10944;42.590;12.630;2023-04-01T15:11:53;14.00;;;2.08;;
21567;SDS011;10944;42.590;12.630;2023-04-01T15:20:12;9.85;;;1.40;;
21567;SDS011;10944;42.590;12.630;2023-04-01T15:39:48;7.57;;;1.55;;
21567;SDS011;10944;42.590;12.630;2023-04-01T15:56:24;11.50;;;2.10;;
21567;SDS011;10944;42.590;12.630;2023-04-01T15:58:59;10.65;;;2.20;;
21567;SDS011;10944;42.590;12.630;2023-04-01T16:21:12;16.60;;;6.20;;
21567;SDS011;10944;42.590;12.630;2023-04-01T16:23:50;13.27;;;3.55;;
21567;SDS011;10944;42.590;12.630;2023-04-01T16:26:24;11.02;;;3.38;;
21567;SDS011;10944;42.590;12.630;2023-04-01T16:36:51;12.77;;;3.08;;
21567;SDS011;10944;42.590;12.630;2023-04-01T16:39:28;108.78;;;63.75;;
21567;SDS011;10944;42.590;12.630;2023-04-01T16:42:14;24.25;;;12.60;;
21567;SDS011;10944;42.590;12.630;2023-04-01T16:45:02;9.50;;;3.58;;
21567;SDS011;10944;42.590;12.630;2023-04-01T16:47:32;7.43;;;2.78;;
21567;SDS011;10944;42.590;12.630;2023-04-01T16:50:24;8.25;;;2.95;;
21567;SDS011;10944;42.590;12.630;2023-04-01T16:53:01;10.85;;;3.30;;
21567;SDS011;10944;42.590;12.630;2023-04-01T16:58:26;9.60;;;2.17;;
21567;SDS011;10944;42.590;12.630;2023-04-01T17:03:49;10.48;;;2.63;;
21567;SDS011;10944;42.590;12.630;2023-04-01T17:06:49;8.05;;;2.40;;
21567;SDS011;10944;42.590;12.630;2023-04-01T17:17:54;8.85;;;1.80;;
21567;SDS011;10944;42.590;12.630;2023-04-01T17:28:52;11.25;;;2.67;;
21567;SDS011;10944;42.590;12.630;2023-04-01T17:45:24;9.10;;;1.98;;
21567;SDS011;10944;42.590;12.630;2023-04-01T17:48:24;11.90;;;2.00;;
21567;SDS011;10944;42.590;12.630;2023-04-01T18:02:37;11.18;;;2.95;;
21567;SDS011;10944;42.590;12.630;2023-04-01T18:05:23;9.13;;;2.53;;
21567;SDS011;10944;42.590;12.630;2023-04-01T18:08:18;9.45;;;2.50;;
21567;SDS011;10944;42.590;12.630;2023-04-01T18:13:54;13.50;;;4.07;;
21567;SDS011;10944;42.590;12.630;2023-04-01T18:17:12;7.63;;;2.22;;
21567;SDS011;10944;42.590;12.630;2023-04-01T18:22:43;8.35;;;2.63;;
21567;SDS011;10944;42.590;12.630;2023-04-01T18:27:49;12.70;;;2.38;;
21567;SDS011;10944;42.590;12.630;2023-04-01T18:30:35;8.20;;;2.50;;
21567;SDS011;10944;42.590;12.630;2023-04-01T18:33:03;8.85;;;2.60;;
21567;SDS011;10944;42.590;12.630;2023-04-01T18:40:46;12.60;;;2.63;;
21567;SDS011;10944;42.590;12.630;2023-04-01T18:43:33;9.15;;;2.47;;
21567;SDS011;10944;42.590;12.630;2023-04-01T18:46:22;10.15;;;2.55;;
21567;SDS011;10944;42.590;12.630;2023-04-01T18:51:44;12.15;;;2.55;;
21567;SDS011;10944;42.590;12.630;2023-04-01T18:59:40;10.00;;;2.35;;
21567;SDS011;10944;42.590;12.630;2023-04-01T19:10:31;10.20;;;2.20;;
21567;SDS011;10944;42.590;12.630;2023-04-01T19:13:13;11.07;;;2.35;;
21567;SDS011;10944;42.590;12.630;2023-04-01T19:18:22;10.25;;;2.55;;
21567;SDS011;10944;42.590;12.630;2023-04-01T19:21:19;11.00;;;2.42;;
21567;SDS011;10944;42.590;12.630;2023-04-01T19:26:34;11.88;;;2.72;;
21567;SDS011;10944;42.590;12.630;2023-04-01T19:34:59;10.48;;;2.35;;
21567;SDS011;10944;42.590;12.630;2023-04-01T19:37:39;12.15;;;2.90;;
21567;SDS011;10944;42.590;12.630;2023-04-01T19:51:31;13.02;;;3.42;;
21567;SDS011;10944;42.590;12.630;2023-04-01T20:08:24;13.57;;;2.58;;
21567;SDS011;10944;42.590;12.630;2023-04-01T20:13:52;13.57;;;3.10;;
21567;SDS011;10944;42.590;12.630;2023-04-01T20:16:53;12.65;;;3.05;;
21567;SDS011;10944;42.590;12.630;2023-04-01T20:19:48;14.00;;;3.15;;
21567;SDS011;10944;42.590;12.630;2023-04-01T20:24:59;10.48;;;3.00;;
21567;SDS011;10944;42.590;12.630;2023-04-01T20:27:37;10.57;;;3.58;;
21567;SDS011;10944;42.590;12.630;2023-04-01T20:38:59;13.93;;;3.67;;
21567;SDS011;10944;42.590;12.630;2023-04-01T20:41:34;18.90;;;3.58;;
21567;SDS011;10944;42.590;12.630;2023-04-01T20:44:34;15.13;;;3.55;;
21567;SDS011;10944;42.590;12.630;2023-04-01T20:47:21;19.52;;;3.90;;
21567;SDS011;10944;42.590;12.630;2023-04-01T20:58:28;11.85;;;3.10;;
21567;SDS011;10944;42.590;12.630;2023-04-01T21:25:16;19.85;;;3.85;;
21567;SDS011;10944;42.590;12.630;2023-04-01T21:33:54;19.92;;;3.60;;
21567;SDS011;10944;42.590;12.630;2023-04-01T21:41:54;17.02;;;3.63;;
21567;SDS011;10944;42.590;12.630;2023-04-01T21:44:43;19.08;;;3.88;;
21567;SDS011;10944;42.590;12.630;2023-04-01T22:06:40;24.63;;;6.53;;
21567;SDS011;10944;42.590;12.630;2023-04-01T22:09:29;22.90;;;6.13;;
21567;SDS011;10944;42.590;12.630;2023-04-01T22:28:12;15.27;;;3.60;;
21567;SDS011;10944;42.590;12.630;2023-04-01T22:30:55;14.55;;;4.30;;
21567;SDS011;10944;42.590;12.630;2023-04-01T22:36:15;20.42;;;3.90;;
21567;SDS011;10944;42.590;12.630;2023-04-01T22:44:02;15.40;;;3.88;;
21567;SDS011;10944;42.590;12.630;2023-04-01T22:49:14;15.10;;;3.65;;
21567;SDS011;10944;42.590;12.630;2023-04-01T22:56:59;12.95;;;3.50;;
21567;SDS011;10944;42.590;12.630;2023-04-01T23:02:25;12.85;;;2.85;;
21567;SDS011;10944;42.590;12.630;2023-04-01T23:04:56;16.42;;;3.65;;
21567;SDS011;10944;42.590;12.630;2023-04-01T23:13:09;18.45;;;4.03;;
21567;SDS011;10944;42.590;12.630;2023-04-01T23:15:45;19.55;;;4.00;;
21567;SDS011;10944;42.590;12.630;2023-04-01T23:18:21;15.80;;;4.13;;
21567;SDS011;10944;42.590;12.630;2023-04-01T23:26:25;15.07;;;3.42;;
21567;SDS011;10944;42.590;12.630;2023-04-01T23:28:59;14.98;;;3.63;;
21567;SDS011;10944;42.590;12.630;2023-04-01T23:31:36;14.70;;;3.50;;
21567;SDS011;10944;42.590;12.630;2023-04-01T23:37:12;15.45;;;4.30;;
21567;SDS011;10944;42.590;12.630;2023-04-01T23:42:13;17.40;;;4.18;;
21567;SDS011;10944;42.590;12.630;2023-04-01T23:44:39;16.45;;;4.15;;
21567;SDS011;10944;42.590;12.630;2023-04-01T23:47:06;11.48;;;4.03;;
21567;SDS011;10944;42.590;12.630;2023-04-01T23:49:38;10.95;;;3.28;;
21567;SDS011;10944;42.590;12.630;2023-04-01T23:54:54;18.05;;;3.92;;
21567;SDS011;10944;42.590;12.630;2023-04-01T23:57:33;14.48;;;3.63;;
